Time;durP1;ratioP1;P1;durP2;ratioP2;P2;SDS_P1;SDS_P2;PMS_P1;PMS_P2;Temp;Humidity;BMP_temperature;BMP_pressure;BME280_temperature;BME280_humidity;BME280_pressure;Samples;Min_cycle;Max_cycle;Signal;HPM_P1;HPM_P2
2022/06/21 00:00:51;;;;;;;2.87;2.67;;;12.00;67.50;;;10.83;68.22;97941.78;5060094;28;21046;-81
2022/06/21 00:03:22;;;;;;;6.50;2.87;;;11.90;67.90;;;10.89;67.94;97945.47;5056564;28;20457;-78
2022/06/21 00:05:52;;;;;;;2.63;2.40;;;11.90;68.40;;;10.90;67.94;97947.94;5056659;28;20503;-82
2022/06/21 00:08:23;;;;;;;4.77;2.90;;;12.00;68.30;;;10.74;69.13;97941.22;5085989;28;20996;-80
2022/06/21 00:10:51;;;;;;;3.07;2.80;;;11.80;69.00;;;10.82;68.94;97936.56;5067209;28;20659;-80
2022/06/21 00:13:23;;;;;;;3.30;2.50;;;11.80;69.10;;;10.74;68.80;97937.66;5072302;28;20454;-78
2022/06/21 00:15:54;;;;;;;3.57;2.57;;;11.80;69.30;;;10.67;69.07;97932.31;5067190;28;20445;-82
2022/06/21 00:18:25;;;;;;;4.97;2.80;;;11.70;69.60;;;10.35;69.40;97880.94;5068990;28;20507;-78
2022/06/21 00:20:53;;;;;;;5.60;2.93;;;11.70;69.90;;;10.75;69.00;97933.91;5065573;28;20440;-79
2022/06/21 00:23:24;;;;;;;3.17;2.57;;;11.80;69.90;;;10.70;69.46;97947.25;5058655;28;20522;-79
2022/06/21 00:25:53;;;;;;;2.87;2.67;;;11.80;69.80;;;10.55;69.60;97939.47;5053496;28;20988;-79
2022/06/21 00:28:21;;;;;;;6.13;3.00;;;11.70;70.20;;;10.43;70.11;97923.09;5063190;28;20446;-80
2022/06/21 00:30:52;;;;;;;4.00;2.70;;;11.60;70.90;;;10.34;71.15;97933.31;5061839;28;20457;-78
2022/06/21 00:33:23;;;;;;;3.27;2.47;;;11.50;71.60;;;10.37;71.03;97929.34;5061565;28;20461;-81
2022/06/21 00:36:04;;;;;;;2.77;2.57;;;11.40;71.80;;;10.38;71.33;97934.53;5066923;28;20458;-79
2022/06/21 00:38:35;;;;;;;2.73;2.47;;;11.50;72.10;;;10.31;73.74;97931.03;5068897;28;20446;-78
2022/06/21 00:41:07;;;;;;;2.90;2.70;;;11.40;76.10;;;10.30;71.92;97932.09;5065583;28;21111;-77
2022/06/21 00:43:41;;;;;;;4.10;2.70;;;11.30;75.10;;;10.57;70.85;97942.78;5056944;28;20465;-76
2022/06/21 00:46:28;;;;;;;2.77;2.57;;;11.60;74.80;;;10.50;72.82;97948.22;5058355;28;20467;-76
2022/06/21 00:48:57;;;;;;;3.80;3.37;;;11.50;75.50;;;10.43;75.12;97888.84;5062429;28;20814;-79
2022/06/21 00:51:32;;;;;;;3.20;2.90;;;11.70;78.90;;;10.83;74.93;97936.38;5059459;28;20460;-78
2022/06/21 00:54:09;;;;;;;4.13;3.40;;;11.90;79.90;;;10.69;72.19;97943.75;5062683;28;20460;-76
2022/06/21 00:56:44;;;;;;;3.33;3.03;;;11.90;76.30;;;10.43;72.96;97929.34;5063236;28;20875;-79
2022/06/21 00:59:25;;;;;;;4.40;3.10;;;11.80;76.80;;;10.55;73.89;97956.50;5057109;28;20463;-79
2022/06/21 01:04:39;;;;;;;3.80;3.00;;;11.70;78.80;;;10.69;73.90;97946.44;5971662;22;20687;-79
2022/06/21 01:07:11;;;;;;;3.70;2.87;;;11.80;78.40;;;10.57;73.38;97949.00;5028731;28;20832;-80
2022/06/21 01:09:46;;;;;;;3.50;3.20;;;11.80;77.90;;;10.48;73.83;97943.03;5020167;28;20454;-78
2022/06/21 01:12:18;;;;;;;3.17;2.97;;;11.70;78.30;;;10.53;73.61;97945.09;5014614;28;20454;-77
2022/06/21 01:14:52;;;;;;;3.50;2.70;;;11.70;78.30;;;10.29;73.54;97908.84;5018236;28;20462;-76
2022/06/21 01:17:21;;;;;;;4.90;3.10;;;11.70;78.30;;;10.41;73.85;97931.44;5018692;28;20453;-77
2022/06/21 01:19:51;;;;;;;3.40;3.13;;;11.60;78.70;;;10.38;74.40;97934.53;5020177;28;20833;-77
2022/06/21 01:22:37;;;;;;;3.20;2.93;;;11.50;79.10;;;10.24;74.48;97938.38;5017665;28;20546;-76
2022/06/21 01:25:35;;;;;;;3.87;3.47;;;11.40;79.80;;;10.19;75.12;97947.91;5018263;28;20550;-79
2022/06/21 01:28:04;;;;;;;5.03;3.17;;;11.30;80.60;;;10.17;75.87;97944.59;5017101;28;20452;-77
2022/06/21 01:30:32;;;;;;;4.67;3.23;;;11.30;81.20;;;10.15;75.34;97937.75;5018832;28;20466;-78
2022/06/21 01:33:00;;;;;;;5.27;3.30;;;11.30;80.80;;;10.26;75.30;97957.88;5020857;28;20481;-76
2022/06/21 01:35:34;;;;;;;3.90;3.60;;;11.40;81.40;;;10.34;74.88;97950.34;5037332;28;20508;-75
2022/06/21 01:38:05;;;;;;;3.33;3.13;;;11.40;81.10;;;10.25;75.94;97940.03;5021047;28;20499;-75
2022/06/21 01:40:37;;;;;;;4.77;3.57;;;11.40;81.80;;;10.40;75.43;97945.97;5024933;28;20544;-78
2022/06/21 01:43:11;;;;;;;5.00;3.37;;;11.50;81.20;;;10.24;74.43;97932.97;5019596;28;20462;-75
2022/06/21 01:45:43;;;;;;;5.83;2.93;;;11.50;80.20;;;10.15;74.80;97940.47;5018763;28;20913;-77
2022/06/21 01:48:23;;;;;;;3.50;3.03;;;11.40;80.60;;;9.89;75.07;97947.63;5034556;28;20508;-79
2022/06/21 01:50:53;;;;;;;3.20;2.90;;;11.20;80.30;;;10.04;75.71;97950.06;5023000;28;20470;-74
2022/06/21 01:53:23;;;;;;;3.63;3.03;;;11.20;81.90;;;10.06;74.77;97947.97;5013145;28;20459;-77
2022/06/21 01:55:54;;;;;;;4.60;2.87;;;11.20;81.10;;;9.90;75.50;97928.50;5021368;28;20554;-76
2022/06/21 01:58:33;;;;;;;3.40;3.10;;;11.20;81.50;;;9.77;75.77;97940.19;5019338;28;20489;-76
2022/06/21 02:01:07;;;;;;;3.13;2.77;;;11.00;81.40;;;9.84;75.89;97940.16;5015870;28;21149;-76
2022/06/21 02:03:39;;;;;;;3.90;2.83;;;11.00;81.70;;;9.68;76.22;97948.72;5020549;28;20467;-74
2022/06/21 02:06:12;;;;;;;3.47;3.17;;;10.90;81.90;;;9.59;76.29;97950.81;5019349;28;20491;-75
2022/06/21 02:08:44;;;;;;;3.97;2.73;;;10.80;82.50;;;9.55;77.76;97952.25;5020902;28;20589;-76
2022/06/21 02:11:17;;;;;;;5.63;3.10;;;10.80;83.30;;;9.52;77.05;97947.28;5019614;28;20757;-75
2022/06/21 02:14:28;;;;;;;3.93;2.87;;;10.70;83.00;;;9.35;77.07;97920.78;5018293;28;20458;-74
2022/06/21 02:16:42;;;;;;;3.90;3.10;;;10.60;83.60;;;9.45;77.15;97933.81;5014191;28;20859;-76
2022/06/21 02:19:15;;;;;;;6.63;3.10;;;10.60;83.30;;;9.42;76.67;97931.56;5032274;28;20501;-75
2022/06/21 02:21:43;;;;;;;3.57;2.40;;;10.60;83.10;;;9.28;77.17;97933.44;5036172;28;20486;-75
2022/06/21 02:24:14;;;;;;;3.73;3.30;;;10.50;83.90;;;9.25;77.63;97934.69;5012787;28;20451;-75
2022/06/21 02:26:42;;;;;;;3.50;3.20;;;10.40;84.20;;;9.05;78.04;97922.06;5019666;28;20462;-76
2022/06/21 02:29:14;;;;;;;4.53;2.80;;;10.40;84.30;;;9.10;78.43;97928.69;5018270;28;20463;-76
2022/06/21 02:31:44;;;;;;;4.23;3.00;;;10.30;84.80;;;9.07;78.02;97928.06;5013585;28;20447;-78
2022/06/21 02:34:17;;;;;;;3.77;3.40;;;10.30;84.70;;;9.08;78.17;97915.41;5014526;28;20459;-79
2022/06/21 02:36:52;;;;;;;3.90;3.50;;;10.30;85.00;;;9.05;77.95;97923.91;5012401;28;20528;-77
2022/06/21 02:39:23;;;;;;;3.70;3.37;;;10.30;85.10;;;8.98;78.42;97912.31;5034275;28;20450;-76
2022/06/21 02:41:55;;;;;;;8.13;3.90;;;10.30;85.20;;;8.97;77.58;97916.88;5033526;28;20461;-76
2022/06/21 02:44:28;;;;;;;6.27;4.20;;;10.20;84.20;;;8.76;77.90;97902.56;5018068;28;20868;-77
2022/06/21 02:47:00;;;;;;;8.27;4.47;;;10.10;84.10;;;8.87;78.28;97911.06;5014500;28;20477;-76
2022/06/21 02:49:34;;;;;;;5.73;4.60;;;10.10;85.30;;;8.74;78.37;97915.44;5018817;28;20821;-76
2022/06/21 02:52:05;;;;;;;7.83;3.80;;;10.00;85.00;;;8.78;78.50;97913.13;5028751;28;20485;-77
2022/06/21 02:54:40;;;;;;;9.20;4.40;;;10.00;85.20;;;8.82;79.11;97917.09;5012816;28;20875;-77
2022/06/21 02:57:13;;;;;;;7.90;4.30;;;10.00;86.60;;;8.84;78.79;97919.56;5017590;28;20505;-79
2022/06/21 02:59:44;;;;;;;5.53;4.17;;;10.00;86.10;;;8.88;80.09;97920.81;5021457;28;20463;-78
2022/06/21 03:02:14;;;;;;;3.90;3.60;;;10.10;88.30;;;9.19;78.66;97932.84;5019107;28;20461;-78
2022/06/21 03:04:48;;;;;;;6.77;4.10;;;10.30;86.90;;;8.95;77.53;97918.94;5018270;28;20462;-76
2022/06/21 03:07:22;;;;;;;3.90;3.53;;;10.30;83.80;;;8.68;78.71;97915.41;5017648;28;20568;-77
2022/06/21 03:09:49;;;;;;;6.43;4.60;;;10.00;84.60;;;8.61;79.22;97920.78;5015730;28;20516;-79
2022/06/21 03:12:22;;;;;;;3.77;3.47;;;9.90;86.40;;;8.30;80.09;97904.13;5013376;28;20509;-80
2022/06/21 03:14:55;;;;;;;5.00;3.70;;;9.70;88.30;;;8.28;80.45;97914.25;5036144;28;20451;-79
2022/06/21 03:17:32;;;;;;;4.90;3.60;;;9.60;88.80;;;8.38;80.45;97913.06;5020336;28;20490;-76
2022/06/21 03:19:59;;;;;;;4.10;3.70;;;9.60;89.30;;;8.41;82.07;97900.00;5018672;28;20466;-77
2022/06/21 03:22:32;;;;;;;3.87;3.20;;;9.70;90.90;;;8.98;80.46;97899.66;5012179;28;20462;-77
2022/06/21 03:25:04;;;;;;;5.20;3.97;;;10.00;90.70;;;8.76;80.21;97899.03;5016487;28;20478;-78
2022/06/21 03:27:38;;;;;;;4.40;3.30;;;9.90;89.30;;;8.55;79.16;97883.91;5017038;28;20455;-78
2022/06/21 03:30:08;;;;;;;3.93;3.53;;;9.90;88.00;;;8.54;79.99;97910.00;5020521;28;20454;-77
2022/06/21 03:32:38;;;;;;;7.67;3.87;;;9.80;88.00;;;8.68;81.45;97910.03;5016814;28;20491;-79
2022/06/21 03:35:07;;;;;;;3.27;2.97;;;9.90;90.20;;;8.96;79.98;97909.00;5015396;28;20448;-77
2022/06/21 03:37:37;;;;;;;3.80;3.13;;;10.00;89.80;;;9.00;79.67;97918.31;5027766;28;20509;-76
2022/06/21 03:42:55;;;;;;;4.03;3.40;;;10.50;87.00;;;9.55;77.75;97904.56;5021748;28;21195;-77
2022/06/21 03:45:31;;;;;;;8.07;4.27;;;10.70;87.50;;;9.61;78.14;97919.06;5025977;28;20571;-79
2022/06/21 03:48:05;;;;;;;4.47;3.43;;;10.70;86.60;;;9.29;75.94;97929.72;5018071;28;20457;-78
2022/06/21 03:50:39;;;;;;;4.20;3.57;;;10.60;81.90;;;9.00;77.38;97918.31;5020608;28;20455;-80
2022/06/21 03:53:14;;;;;;;4.80;4.40;;;10.40;82.70;;;8.78;77.73;97878.94;5013934;28;20468;-77
2022/06/21 03:55:50;;;;;;;4.00;3.70;;;10.30;84.20;;;8.71;77.42;97882.69;5016992;28;20454;-77
2022/06/21 03:58:25;;;;;;;8.23;3.57;;;10.20;83.60;;;8.98;78.84;97923.91;5035705;28;20485;-79
2022/06/21 04:01:06;;;;;;;4.23;3.93;;;10.20;85.80;;;9.35;76.64;97935.09;5022064;28;20465;-77
2022/06/21 04:03:39;;;;;;;6.53;3.80;;;10.50;85.20;;;9.45;76.09;97925.72;5015054;28;20969;-79
2022/06/21 04:06:14;;;;;;;4.53;3.60;;;10.60;82.10;;;10.03;76.09;97924.94;5017423;28;20490;-79
2022/06/21 04:08:48;;;;;;;5.63;3.53;;;11.00;85.00;;;11.39;68.19;97927.56;5023428;28;20948;-76
2022/06/21 04:11:22;;;;;;;4.77;3.47;;;12.30;75.90;;;12.82;67.61;97939.22;5016784;28;20941;-76
2022/06/21 04:13:57;;;;;;;3.67;3.00;;;13.70;74.30;;;14.38;60.30;97932.63;5020334;28;20483;-76
2022/06/21 04:16:36;;;;;;;4.93;4.63;;;15.30;69.40;;;14.34;57.55;97926.03;5014803;28;20481;-78
2022/06/21 04:19:11;;;;;;;5.33;3.43;;;15.80;62.10;;;14.55;56.98;97927.25;5016506;28;20881;-76
2022/06/21 04:21:47;;;;;;;5.10;3.03;;;16.30;60.00;;;13.67;59.29;97923.59;5025150;28;20456;-78
2022/06/21 04:24:25;;;;;;;4.00;3.63;;;15.80;60.30;;;13.88;59.06;97933.00;5024237;28;20526;-74
2022/06/21 04:26:58;;;;;;;3.90;3.07;;;15.50;60.60;;;15.15;56.65;97892.38;5022266;28;20463;-76
2022/06/21 04:29:32;;;;;;;3.70;3.40;;;16.50;60.90;;;15.57;53.48;97924.59;5016813;28;20464;-77
2022/06/21 04:32:08;;;;;;;3.73;3.20;;;17.30;57.60;;;14.45;56.41;97917.81;5020990;28;20539;-75
2022/06/21 04:34:42;;;;;;;3.90;3.10;;;16.90;56.90;;;14.49;58.44;97911.91;5016964;28;20457;-77
2022/06/21 04:37:16;;;;;;;4.23;2.90;;;16.40;59.00;;;15.70;53.83;97920.66;5016917;28;20476;-77
2022/06/21 04:39:49;;;;;;;6.13;3.70;;;16.90;57.60;;;14.90;55.05;97912.66;5018322;28;20466;-79
2022/06/21 04:42:26;;;;;;;4.93;2.97;;;17.00;56.50;;;15.33;55.84;97921.25;5017627;28;20476;-78
2022/06/21 04:45:02;;;;;;;6.70;3.33;;;17.00;57.20;;;15.33;53.27;97914.97;5021553;28;21331;-79
2022/06/21 04:47:35;;;;;;;3.77;3.10;;;17.10;55.90;;;15.04;54.07;97866.06;5016533;28;20468;-81
2022/06/21 04:50:18;;;;;;;3.70;3.20;;;17.10;56.00;;;15.28;53.25;97873.00;5019582;28;20467;-80
2022/06/21 04:52:52;;;;;;;4.63;3.30;;;17.20;56.10;;;15.36;54.06;97906.28;5032051;28;20441;-82
2022/06/21 04:55:26;;;;;;;5.20;3.70;;;17.10;55.90;;;15.81;52.70;97912.66;5037831;28;20463;-79
2022/06/21 04:57:54;;;;;;;4.40;3.40;;;17.30;55.60;;;15.08;53.08;97818.25;5045169;28;20461;-83
2022/06/21 05:00:22;;;;;;;4.43;3.70;;;17.30;55.40;;;15.84;52.24;97866.63;5032074;28;20455;-77
2022/06/21 05:02:56;;;;;;;3.70;3.50;;;17.70;55.50;;;15.79;52.17;97844.78;5017145;28;20453;-78
2022/06/21 05:05:27;;;;;;;4.43;3.70;;;17.60;55.10;;;16.40;52.54;97905.75;5016512;28;20466;-79
2022/06/21 05:08:01;;;;;;;4.30;3.40;;;17.90;55.10;;;16.02;51.88;97891.97;5039458;28;20466;-79
2022/06/21 05:10:32;;;;;;;10.93;3.00;;;18.00;54.30;;;16.79;52.12;97888.41;5008770;28;20467;-81
2022/06/21 05:13:03;;;;;;;4.87;3.87;;;18.20;55.20;;;17.17;49.31;97880.28;5021371;28;20477;-79
2022/06/21 05:15:36;;;;;;;4.20;3.80;;;18.80;53.60;;;16.53;50.44;97885.41;5021218;28;20473;-76
2022/06/21 05:18:14;;;;;;;4.67;3.53;;;18.40;53.30;;;17.28;50.14;97882.78;5016778;28;20477;-77
2022/06/21 05:20:48;;;;;;;3.93;3.63;;;18.60;54.00;;;17.73;47.38;97881.69;5020581;28;20472;-75
2022/06/21 05:23:16;;;;;;;4.47;3.60;;;19.10;52.80;;;17.39;48.64;97880.16;5015645;28;20485;-82
2022/06/21 05:25:45;;;;;;;4.27;3.80;;;19.20;52.30;;;18.14;47.24;97868.22;5021302;28;20466;-78
2022/06/21 05:28:20;;;;;;;4.70;4.20;;;20.00;52.20;;;17.18;48.75;97863.59;5034025;28;20451;-79
2022/06/21 05:30:53;;;;;;;3.90;3.60;;;19.40;51.60;;;17.84;46.97;97845.13;5024296;28;20476;-79
2022/06/21 05:33:28;;;;;;;5.07;4.13;;;19.70;51.50;;;17.34;48.15;97853.63;5020743;28;20461;-81
2022/06/21 05:35:55;;;;;;;3.83;3.50;;;19.30;51.40;;;16.99;49.99;97835.94;5014591;28;20475;-81
2022/06/21 05:38:27;;;;;;;4.77;4.30;;;19.10;52.10;;;18.18;46.24;97843.91;5029853;28;20478;-81
2022/06/21 05:40:59;;;;;;;4.30;4.00;;;19.60;51.70;;;17.96;46.70;97864.84;5018850;28;20457;-74
2022/06/21 05:43:33;;;;;;;4.60;3.93;;;20.10;50.80;;;17.90;47.37;97865.09;5012913;28;20451;-82
2022/06/21 05:46:03;;;;;;;3.90;3.50;;;19.90;51.10;;;18.20;45.84;97858.13;5015270;28;21318;-81
2022/06/21 05:48:37;;;;;;;5.93;3.87;;;20.00;50.60;;;19.13;45.09;97860.97;5019651;28;20458;-82
2022/06/21 05:51:08;;;;;;;3.30;2.97;;;20.20;51.10;;;20.09;43.06;97856.59;5018962;28;20469;-82
2022/06/21 05:53:39;;;;;;;4.63;3.13;;;21.00;50.90;;;20.59;40.83;97863.97;5009699;28;20463;-81
2022/06/21 05:56:12;;;;;;;5.07;3.50;;;22.10;49.20;;;19.79;41.68;97872.03;5029908;28;20484;-82
2022/06/21 05:58:44;;;;;;;5.20;3.80;;;21.90;48.30;;;18.84;43.80;97877.91;5024978;28;20474;-82
2022/06/21 06:01:18;;;;;;;3.87;3.57;;;21.10;48.10;;;19.45;42.52;97870.75;5035148;28;20518;-79
2022/06/21 06:03:54;;;;;;;4.00;3.60;;;21.30;48.60;;;18.50;44.97;97883.88;5024755;28;20496;-79
2022/06/21 06:06:24;;;;;;;3.50;3.00;;;20.80;48.30;;;18.61;44.71;97876.53;5014609;28;20533;-78
2022/06/21 06:08:56;;;;;;;4.20;3.80;;;20.20;48.80;;;19.09;43.36;97879.84;5021699;28;20450;-80
2022/06/21 06:11:57;;;;;;;8.13;3.60;;;20.80;48.60;;;18.44;44.94;97895.94;5016630;28;20466;-78
2022/06/21 06:14:17;;;;;;;4.90;3.57;;;20.30;48.80;;;20.08;41.17;97888.66;5021200;28;20454;-78
2022/06/21 06:16:46;;;;;;;4.43;3.50;;;21.10;48.40;;;19.36;42.23;97886.13;5018633;28;20747;-79
2022/06/21 06:19:22;;;;;;;4.53;3.20;;;21.30;47.60;;;19.85;41.05;97890.09;5015427;28;20469;-78
2022/06/21 06:22:09;;;;;;;3.67;2.80;;;21.50;47.50;;;21.18;39.33;97894.31;5016595;28;20473;-79
2022/06/21 06:24:46;;;;;;;4.70;3.33;;;22.60;47.20;;;21.29;38.74;97892.28;5032341;28;20463;-79
2022/06/21 06:27:28;;;;;;;3.70;2.87;;;23.10;46.80;;;21.80;37.72;97885.47;5017188;28;20537;-80
2022/06/21 06:30:01;;;;;;;6.07;3.00;;;23.20;46.80;;;21.13;39.42;97894.34;5021823;28;20447;-80
2022/06/21 06:32:34;;;;;;;3.23;2.80;;;22.90;46.60;;;19.94;41.52;97893.13;5029223;28;20920;-79
2022/06/21 06:35:03;;;;;;;4.07;2.80;;;22.00;46.90;;;18.69;44.52;97884.19;5037295;28;20510;-81
2022/06/21 06:37:37;;;;;;;3.53;3.23;;;20.70;47.80;;;17.80;46.08;97887.75;5041012;28;20477;-81
2022/06/21 06:40:16;;;;;;;5.70;3.10;;;19.60;48.50;;;17.66;46.69;97899.13;5024126;28;20462;-82
2022/06/21 06:42:46;;;;;;;3.73;2.67;;;19.10;49.00;;;16.72;49.47;97896.78;5016822;28;20461;-81
2022/06/21 06:45:18;;;;;;;6.17;3.57;;;18.40;49.80;;;16.40;50.45;97892.13;5023889;28;20454;-82
2022/06/21 06:47:49;;;;;;;4.33;3.13;;;17.80;50.60;;;16.54;50.63;97896.06;5035237;28;20458;-83
2022/06/21 06:50:24;;;;;;;2.90;2.63;;;17.70;51.50;;;16.33;51.26;97910.56;5023898;28;20454;-81
2022/06/21 06:52:59;;;;;;;3.57;2.70;;;17.50;52.00;;;16.18;51.95;97914.75;5024553;28;20524;-84
2022/06/21 06:55:34;;;;;;;4.43;3.17;;;17.40;52.30;;;16.18;51.94;97909.31;5028226;28;20475;-83
2022/06/21 06:58:05;;;;;;;5.77;3.37;;;17.30;52.70;;;15.50;53.85;97923.13;5041666;28;20474;-82
2022/06/21 07:00:38;;;;;;;3.33;2.90;;;16.90;53.10;;;15.70;53.25;97926.13;5060533;28;20446;-82
2022/06/21 07:03:12;;;;;;;5.63;3.20;;;16.80;53.70;;;16.12;53.00;97930.22;5040889;28;20658;-82
2022/06/21 07:05:48;;;;;;;4.90;3.50;;;17.10;54.10;;;16.40;52.60;97931.09;5060987;28;20540;-82
2022/06/21 07:08:22;;;;;;;3.33;2.73;;;17.30;54.10;;;16.54;51.75;97927.97;5041738;28;20457;-81
2022/06/21 07:10:53;;;;;;;3.83;3.00;;;17.50;53.90;;;16.36;52.55;97916.34;5046397;28;20517;-82
2022/06/21 07:13:21;;;;;;;7.50;3.77;;;17.50;54.00;;;15.72;54.87;97917.72;5040423;28;20450;-81
2022/06/21 07:15:52;;;;;;;5.67;3.50;;;17.10;54.40;;;15.83;54.85;97919.47;5038836;28;20461;-81
2022/06/21 07:18:28;;;;;;;4.33;3.20;;;16.90;54.70;;;15.96;54.52;97920.22;5038770;28;20503;-80
2022/06/21 07:20:57;;;;;;;5.47;4.17;;;17.00;55.20;;;16.41;54.33;97908.19;5062169;28;20461;-82
2022/06/21 07:23:29;;;;;;;4.60;3.80;;;17.30;55.70;;;16.48;53.31;97907.19;5033554;28;20454;-82
2022/06/21 07:26:01;;;;;;;7.50;3.67;;;17.50;55.00;;;16.44;53.17;97915.06;5020392;28;20463;-77
2022/06/21 07:28:37;;;;;;;8.53;4.00;;;17.40;55.00;;;16.50;53.44;97905.03;5018942;28;20947;-79
2022/06/21 07:31:11;;;;;;;10.57;5.80;;;17.50;55.30;;;16.54;53.08;97895.25;5021566;28;20922;-77
2022/06/21 07:33:42;;;;;;;3.60;3.30;;;17.50;54.90;;;16.73;52.74;97892.13;5023467;28;20493;-78
2022/06/21 07:36:18;;;;;;;4.53;3.10;;;17.60;54.90;;;16.61;52.40;97890.41;5020393;28;20462;-78
2022/06/21 07:38:52;;;;;;;4.70;3.40;;;17.70;54.40;;;16.74;52.38;97902.81;5018594;28;20481;-77
2022/06/21 07:41:26;;;;;;;5.60;3.70;;;17.70;54.60;;;16.75;51.92;97892.69;5022124;28;20957;-76
2022/06/21 07:43:58;;;;;;;3.90;2.90;;;17.70;54.30;;;16.77;50.90;97885.91;5019728;28;20454;-76
2022/06/21 07:46:32;;;;;;;4.40;3.00;;;17.80;53.20;;;16.76;49.84;97886.19;5033663;28;20454;-77
2022/06/21 07:49:10;;;;;;;3.13;2.77;;;17.80;52.70;;;17.05;50.88;97862.16;5015467;28;20506;-76
2022/06/21 07:51:45;;;;;;;5.50;4.07;;;18.10;53.90;;;17.18;50.88;97876.44;5022198;28;20466;-78
2022/06/21 07:54:19;;;;;;;6.53;4.03;;;18.20;53.80;;;17.01;51.57;97879.31;5019730;28;20465;-78
2022/06/21 07:56:52;;;;;;;5.53;3.63;;;18.10;53.80;;;17.22;51.75;97883.84;5019692;28;20463;-77
2022/06/21 07:59:24;;;;;;;3.17;2.87;;;18.20;54.60;;;16.87;50.29;97877.00;5036969;28;20497;-77
2022/06/21 08:07:36;;;;;;;4.63;3.10;;;18.40;53.70;;;17.37;51.37;97913.16;5028096;28;20540;-77
2022/06/21 08:10:09;;;;;;;5.27;3.40;;;18.40;54.00;;;17.32;50.22;97909.56;5024829;28;20454;-76
2022/06/21 08:12:36;;;;;;;4.30;2.90;;;18.30;53.60;;;17.24;50.74;97900.78;5024367;28;20881;-77
2022/06/21 08:15:04;;;;;;;6.57;3.30;;;18.30;53.70;;;17.02;50.83;97867.31;5021429;28;20570;-77
2022/06/21 08:17:38;;;;;;;3.53;3.27;;;18.20;53.70;;;17.34;50.56;97901.94;5026952;28;20474;-76
2022/06/21 08:20:12;;;;;;;4.87;3.47;;;18.30;53.80;;;17.55;49.70;97911.09;5024568;28;20573;-75
2022/06/21 08:22:47;;;;;;;5.07;3.57;;;18.40;53.60;;;17.70;50.11;97899.44;5030421;28;20514;-77
2022/06/21 08:25:24;;;;;;;4.80;2.97;;;18.60;53.70;;;17.73;49.41;97898.06;5034701;28;20464;-77
2022/06/21 08:27:58;;;;;;;5.73;2.90;;;18.70;53.30;;;17.70;49.36;97869.38;5018604;28;20479;-76
2022/06/21 08:30:31;;;;;;;7.17;2.97;;;18.70;52.90;;;17.97;48.47;97876.63;5018603;28;20826;-76
2022/06/21 08:33:06;;;;;;;3.67;2.70;;;18.80;52.80;;;18.00;47.87;97873.34;5019603;28;20462;-76
2022/06/21 08:35:39;;;;;;;4.50;2.80;;;18.90;52.40;;;18.08;48.56;97883.78;5023870;28;20453;-76
2022/06/21 08:38:12;;;;;;;5.20;2.90;;;19.00;52.50;;;18.15;48.52;97893.66;5040954;28;20486;-78
2022/06/21 08:41:56;;;;;;;4.80;3.00;;;19.00;52.90;;;18.30;46.91;97890.97;5028599;28;20471;-77
2022/06/21 08:45:42;;;;;;;3.47;2.73;;;19.30;52.20;;;18.52;46.11;97900.84;5011393;28;21031;-74
2022/06/21 08:48:43;;;;;;;3.10;2.43;;;19.30;51.50;;;18.65;44.84;97894.03;5035425;28;20466;-74
2022/06/21 08:51:51;;;;;;;2.10;2.00;;;19.60;50.50;;;18.97;44.26;97882.03;5022258;28;20515;-74
2022/06/21 08:54:32;;;;;;;4.03;2.50;;;19.80;50.10;;;18.60;44.64;97840.16;5014468;28;20466;-76
2022/06/21 08:57:08;;;;;;;3.87;2.40;;;19.80;50.00;;;18.26;45.21;97846.94;5015837;28;20447;-79
2022/06/21 08:59:50;;;;;;;3.23;2.60;;;19.70;50.00;;;18.92;44.94;97882.84;5016734;28;20501;-75
2022/06/21 09:02:34;;;;;;;3.97;2.63;;;19.80;50.40;;;18.90;45.52;97876.84;5017199;28;21000;-75
2022/06/21 09:05:15;;;;;;;4.17;2.50;;;19.80;50.50;;;19.02;44.09;97873.00;5018253;28;20549;-74
2022/06/21 09:08:18;;;;;;;3.40;3.00;;;19.90;50.00;;;19.16;44.02;97868.63;5031785;28;20517;-74
2022/06/21 09:11:07;;;;;;;3.27;2.73;;;20.00;49.90;;;19.24;44.51;97856.28;5015742;28;20461;-74
2022/06/21 09:14:00;;;;;;;4.80;3.00;;;20.10;50.20;;;18.65;45.47;97840.13;5013856;28;21023;-75
2022/06/21 09:16:36;;;;;;;4.67;2.77;;;19.90;50.10;;;19.11;45.20;97854.94;5018253;28;20478;-75
2022/06/21 09:19:20;;;;;;;5.50;2.70;;;19.90;50.50;;;19.39;44.18;97856.25;5012548;28;20477;-75
2022/06/21 09:21:55;;;;;;;2.67;2.47;;;20.20;50.10;;;19.38;43.63;97849.13;5023595;28;20619;-74
2022/06/21 09:24:39;;;;;;;2.93;2.43;;;20.30;49.70;;;19.53;41.80;97842.81;5023539;28;20475;-75
2022/06/21 09:27:15;;;;;;;4.53;2.13;;;20.40;48.50;;;19.44;42.52;97836.25;5009069;28;20545;-76
2022/06/21 09:30:02;;;;;;;3.10;2.57;;;20.40;48.60;;;19.37;43.17;97830.25;5014092;28;21007;-76
2022/06/21 09:32:47;;;;;;;2.70;2.50;;;20.30;49.30;;;19.57;42.62;97825.81;5013790;28;20585;-74
2022/06/21 09:35:30;;;;;;;3.50;2.63;;;20.40;49.00;;;19.73;42.41;97824.66;5015086;28;20454;-75
2022/06/21 09:38:12;;;;;;;4.97;2.53;;;20.50;48.90;;;19.95;42.14;97826.25;5014074;28;20470;-74
2022/06/21 09:40:45;;;;;;;4.33;2.30;;;20.80;48.80;;;19.80;42.32;97802.44;5016514;28;21001;-74
2022/06/21 09:43:28;;;;;;;2.97;2.30;;;20.80;48.80;;;19.87;40.69;97781.03;5017919;28;20534;-74
2022/06/21 09:46:06;;;;;;;3.40;2.57;;;20.70;47.80;;;20.27;41.75;97788.47;5016397;28;20461;-73
2022/06/21 09:48:45;;;;;;;4.23;2.10;;;20.90;48.50;;;20.69;40.31;97809.03;5030859;28;20473;-76
2022/06/21 09:51:23;;;;;;;3.87;2.47;;;21.40;48.20;;;20.58;40.41;97807.47;5016193;28;20446;-76
2022/06/21 09:54:06;;;;;;;3.60;2.60;;;21.40;48.00;;;20.52;39.96;97798.44;5014164;28;20462;-75
2022/06/21 09:56:43;;;;;;;2.40;2.20;;;21.40;47.50;;;20.64;39.80;97803.59;5020314;28;20523;-76
2022/06/21 09:59:21;;;;;;;2.47;2.27;;;21.40;47.50;;;20.63;40.02;97794.53;5016003;28;20569;-75
2022/06/21 10:01:55;;;;;;;2.37;2.13;;;21.50;47.60;;;20.53;40.08;97740.53;5016105;28;20458;-78
2022/06/21 10:04:30;;;;;;;7.57;2.50;;;21.60;47.60;;;21.22;38.55;97794.56;5016383;28;20532;-76
2022/06/21 10:07:12;;;;;;;2.03;1.93;;;22.00;47.30;;;20.99;38.55;97790.66;5031788;28;20461;-77
2022/06/21 10:09:54;;;;;;;5.23;2.07;;;21.90;46.70;;;20.91;37.75;97788.53;5016742;28;20458;-77
2022/06/21 10:12:35;;;;;;;2.13;1.97;;;21.80;46.00;;;20.72;36.08;97785.69;5013439;28;21040;-76
2022/06/21 10:15:32;;;;;;;3.70;1.90;;;21.70;44.30;;;20.88;36.92;97789.13;5034757;28;20973;-77
2022/06/21 10:18:49;;;;;;;3.60;1.80;;;21.70;45.00;;;20.86;37.28;97780.34;5021123;28;20489;-76
2022/06/21 10:21:42;;;;;;;5.17;1.87;;;21.70;45.30;;;21.46;36.00;97779.19;5017296;28;20482;-76
2022/06/21 10:24:44;;;;;;;3.10;2.00;;;22.00;45.00;;;21.61;33.40;97778.16;4997715;28;20500;-74
2022/06/21 10:27:43;;;;;;;5.93;1.73;;;22.40;43.40;;;21.95;33.19;97777.22;4994158;28;20467;-76
2022/06/21 10:30:39;;;;;;;2.30;1.40;;;22.60;42.60;;;21.87;33.70;97766.88;5012193;28;21207;-75
2022/06/21 10:33:28;;;;;;;3.43;1.83;;;22.80;43.00;;;21.88;33.66;97774.84;5013546;28;20523;-75
2022/06/21 10:36:41;;;;;;;1.90;1.53;;;22.60;43.10;;;21.80;33.01;97764.50;5017852;28;20461;-75
2022/06/21 10:40:09;;;;;;;3.70;1.97;;;22.60;42.30;;;21.77;33.36;97765.91;4932877;28;21503;-75
2022/06/21 10:43:01;;;;;;;2.53;1.80;;;22.60;42.40;;;22.04;31.36;97761.69;4974363;28;20486;-75
2022/06/21 10:45:49;;;;;;;2.17;1.50;;;22.70;41.10;;;22.50;31.73;97764.88;5018254;28;20965;-75
2022/06/21 10:48:54;;;;;;;2.60;1.50;;;23.10;42.10;;;22.39;31.23;97753.19;5017132;28;20459;-74
2022/06/21 10:51:35;;;;;;;3.07;1.80;;;23.20;41.10;;;22.28;31.94;97752.53;5018120;28;20466;-75
2022/06/21 10:54:36;;;;;;;1.53;1.23;;;23.10;41.30;;;22.26;31.15;97738.25;5015465;28;20613;-75
2022/06/21 10:57:18;;;;;;;2.70;1.60;;;23.10;40.70;;;22.44;31.19;97733.03;5015284;28;20458;-74
2022/06/21 11:03:18;;;;;;;1.50;1.30;;;23.30;41.10;;;22.77;30.41;97722.84;5019896;28;20470;-75
2022/06/21 11:05:59;;;;;;;3.07;1.57;;;23.40;40.50;;;23.01;30.56;97719.09;5018747;28;20467;-74
2022/06/21 11:08:48;;;;;;;1.43;1.33;;;23.70;40.80;;;23.19;30.99;97724.81;5020716;28;20468;-75
2022/06/21 11:11:25;;;;;;;3.97;1.70;;;23.80;41.30;;;22.85;29.79;97712.25;5022683;28;20487;-74
2022/06/21 11:14:04;;;;;;;5.47;1.50;;;23.70;40.00;;;23.27;29.35;97706.78;5016266;28;20563;-75